createdAt,value
2022-07-29T00:00:00.008Z,48.84
2022-07-29T00:05:02.385Z,49.36
2022-07-29T00:10:04.962Z,49.02
2022-07-29T00:15:07.174Z,49.43
2022-07-29T00:20:09.403Z,49.12
2022-07-29T00:25:13.681Z,49.58
2022-07-29T00:30:15.580Z,49.31
2022-07-29T00:35:35.797Z,49.39
2022-07-29T00:40:37.309Z,49.26
2022-07-29T00:45:45.636Z,49.86
2022-07-29T00:50:47.327Z,50.45
2022-07-29T00:55:48.823Z,50.20
2022-07-29T01:00:50.824Z,50.30
2022-07-29T01:05:54.227Z,50.51
2022-07-29T01:10:56.292Z,50.51
2022-07-29T01:16:04.739Z,50.21
2022-07-29T01:21:42.352Z,50.57
2022-07-29T01:26:53.186Z,50.62
2022-07-29T01:32:09.959Z,50.38
2022-07-29T01:37:45.295Z,50.61
2022-07-29T01:42:52.437Z,50.72
2022-07-29T01:47:53.844Z,49.27
2022-07-29T01:52:59.339Z,50.09
2022-07-29T01:58:01.973Z,50.95
2022-07-29T02:03:08.341Z,50.12
2022-07-29T02:08:11.863Z,49.86
2022-07-29T02:13:15.070Z,50.37
2022-07-29T02:18:19.535Z,50.76
2022-07-29T02:23:23.777Z,50.52
2022-07-29T02:28:28.873Z,50.62
2022-07-29T02:33:32.489Z,51.30
2022-07-29T02:38:52.024Z,52.33
2022-07-29T02:44:02.619Z,52.72
2022-07-29T02:49:17.691Z,53.16
2022-07-29T02:54:47.186Z,54.24
2022-07-29T02:59:52.486Z,56.80
2022-07-29T03:04:56.362Z,62.80
2022-07-29T03:10:00.789Z,68.04
2022-07-29T03:15:03.035Z,71.52
2022-07-29T03:20:05.261Z,73.95
2022-07-29T03:25:14.339Z,76.03
2022-07-29T03:30:21.591Z,76.71
2022-07-29T03:35:24.046Z,77.73
2022-07-29T03:40:32.370Z,78.52
2022-07-29T03:45:35.547Z,78.14
2022-07-29T03:50:37.379Z,78.53
2022-07-29T03:55:43.765Z,80.26
2022-07-29T04:00:45.968Z,82.85
2022-07-29T04:06:00.406Z,83.16
2022-07-29T04:11:03.791Z,84.26
2022-07-29T04:16:05.634Z,86.26
2022-07-29T04:21:07.274Z,88.81
2022-07-29T04:26:12.255Z,89.88
2022-07-29T04:31:14.394Z,93.27
2022-07-29T04:36:28.674Z,93.89
2022-07-29T04:41:32.968Z,93.62
2022-07-29T04:46:36.500Z,95.43
2022-07-29T04:51:38.742Z,96.08
2022-07-29T04:56:40.343Z,97.80
2022-07-29T05:01:41.858Z,97.94
2022-07-29T05:06:44.915Z,96.62
2022-07-29T05:11:46.769Z,94.87
2022-07-29T05:16:49.369Z,96.33
2022-07-29T05:21:51.357Z,95.45
2022-07-29T05:26:53.203Z,95.48
2022-07-29T05:31:54.771Z,94.78
2022-07-29T05:36:56.379Z,95.00
2022-07-29T05:41:57.879Z,96.13
2022-07-29T05:46:59.339Z,97.36
2022-07-29T05:52:00.855Z,95.52
2022-07-29T05:57:02.911Z,96.83
2022-07-29T06:02:05.955Z,96.63
2022-07-29T06:07:07.636Z,95.66
2022-07-29T06:12:09.422Z,94.79
2022-07-29T06:17:12.496Z,94.23
2022-07-29T06:22:16.968Z,92.76
2022-07-29T06:27:18.489Z,91.17
2022-07-29T06:32:20.211Z,91.93
2022-07-29T06:37:25.228Z,93.49
2022-07-29T06:42:28.118Z,95.21
2022-07-29T06:47:29.967Z,97.10
2022-07-29T06:52:31.561Z,99.36
2022-07-29T06:57:33.411Z,100.00
2022-07-29T07:02:35.010Z,100.00
2022-07-29T07:07:36.562Z,100.00
2022-07-29T07:12:38.112Z,100.00
2022-07-29T07:17:39.830Z,100.00
2022-07-29T07:22:41.316Z,100.00
2022-07-29T07:27:43.298Z,100.00
2022-07-29T07:32:44.961Z,100.00
2022-07-29T07:37:46.593Z,100.00
2022-07-29T07:42:49.635Z,100.00
2022-07-29T07:47:51.259Z,100.00
2022-07-29T07:52:55.389Z,100.00
2022-07-29T07:57:57.173Z,98.22
2022-07-29T08:02:58.871Z,99.59
2022-07-29T08:08:00.748Z,95.25
2022-07-29T08:13:08.914Z,93.76
2022-07-29T08:18:10.715Z,93.60
2022-07-29T08:23:12.247Z,95.31
2022-07-29T08:28:13.759Z,93.13
2022-07-29T08:33:15.424Z,93.11
2022-07-29T08:38:17.488Z,94.71
2022-07-29T08:43:19.232Z,97.04
2022-07-29T08:48:23.036Z,95.81
2022-07-29T08:53:27.921Z,94.97
2022-07-29T08:58:36.590Z,93.75
2022-07-29T09:03:40.818Z,93.49
2022-07-29T09:08:42.679Z,91.97
2022-07-29T09:13:45.399Z,92.93
2022-07-29T09:18:47.665Z,87.28
2022-07-29T09:24:09.110Z,85.93
2022-07-29T09:29:16.029Z,87.01
2022-07-29T09:34:32.780Z,84.74
2022-07-29T09:39:46.415Z,86.53
2022-07-29T09:44:50.852Z,80.24
2022-07-29T09:50:00.321Z,76.03
2022-07-29T09:55:10.226Z,74.95
2022-07-29T10:00:20.910Z,77.05
2022-07-29T10:05:24.547Z,72.44
2022-07-29T10:10:31.768Z,68.32
2022-07-29T10:15:44.681Z,69.32
2022-07-29T10:20:46.513Z,69.76
2022-07-29T10:25:48.429Z,68.11
2022-07-29T10:31:14.619Z,68.76
2022-07-29T10:36:45.153Z,68.28
2022-07-29T10:42:03.539Z,66.83
2022-07-29T10:47:05.765Z,64.45
2022-07-29T10:52:10.279Z,64.02
2022-07-29T10:57:12.643Z,64.50
2022-07-29T11:02:42.326Z,63.87
2022-07-29T11:08:20.418Z,63.31
2022-07-29T11:13:44.588Z,63.93
2022-07-29T11:19:26.767Z,64.02
2022-07-29T11:24:33.385Z,64.55
2022-07-29T11:29:41.501Z,65.76
2022-07-29T11:34:45.187Z,69.34
2022-07-29T11:39:53.686Z,68.62
2022-07-29T11:50:33.486Z,65.35
2022-07-29T11:55:50.908Z,62.80
2022-07-29T12:00:55.815Z,62.01
2022-07-29T12:05:57.701Z,60.29
2022-07-29T12:07:01.822Z,65.69
2022-07-29T12:10:59.431Z,56.50
2022-07-29T12:16:01.442Z,57.45
2022-07-29T12:21:08.500Z,57.50
2022-07-29T12:26:11.056Z,56.90
2022-07-29T12:31:43.467Z,58.62
2022-07-29T12:36:45.246Z,55.96
2022-07-29T12:41:46.837Z,53.25
2022-07-29T12:47:02.778Z,53.12
2022-07-29T12:52:25.282Z,55.59
2022-07-29T12:57:27.908Z,52.29
2022-07-29T13:02:29.610Z,54.00
2022-07-29T13:07:54.299Z,52.28
2022-07-29T13:13:10.457Z,52.30
2022-07-29T13:18:31.589Z,51.49
2022-07-29T13:23:33.056Z,51.77
2022-07-29T13:28:39.908Z,51.01
2022-07-29T13:33:41.460Z,53.68
2022-07-29T13:38:42.960Z,51.25
2022-07-29T13:43:44.699Z,51.76
2022-07-29T13:48:46.329Z,51.09
2022-07-29T13:53:47.902Z,49.21
2022-07-29T13:58:49.352Z,49.15
2022-07-29T14:03:50.955Z,47.32
2022-07-29T14:08:52.416Z,48.84
2022-07-29T14:13:53.965Z,48.42
2022-07-29T14:18:55.446Z,46.87
2022-07-29T14:23:57.239Z,46.42
2022-07-29T14:28:59.717Z,44.07
2022-07-29T14:34:02.947Z,44.91
2022-07-29T14:39:05.028Z,44.39
2022-07-29T14:44:06.526Z,46.67
2022-07-29T14:49:08.072Z,46.21
2022-07-29T14:54:11.277Z,45.66
2022-07-29T14:59:12.877Z,46.93
2022-07-29T15:04:14.365Z,48.71
2022-07-29T15:09:16.087Z,48.87
2022-07-29T15:14:17.679Z,49.25
2022-07-29T15:19:19.171Z,51.00
2022-07-29T15:24:20.826Z,50.31
2022-07-29T15:29:22.546Z,49.80
2022-07-29T15:34:24.242Z,49.23
2022-07-29T15:39:25.807Z,48.87
2022-07-29T15:44:27.415Z,48.56
2022-07-29T15:49:49.505Z,49.16
2022-07-29T15:54:51.091Z,49.92
2022-07-29T15:59:52.944Z,51.54
2022-07-29T16:04:54.420Z,51.34
2022-07-29T16:09:55.912Z,50.04
2022-07-29T16:14:57.432Z,49.06
2022-07-29T16:19:58.964Z,49.49
2022-07-29T16:25:00.506Z,49.17
2022-07-29T16:30:02.150Z,48.42
2022-07-29T16:35:05.193Z,48.43
2022-07-29T16:40:11.752Z,48.83
2022-07-29T16:45:13.677Z,49.33
2022-07-29T16:50:15.420Z,49.38
2022-07-29T16:55:17.133Z,49.58
2022-07-29T17:00:21.021Z,49.27
2022-07-29T17:05:22.727Z,49.30
2022-07-29T17:10:25.529Z,50.10
2022-07-29T17:15:29.265Z,50.34
2022-07-29T17:20:32.992Z,50.36
2022-07-29T17:25:34.472Z,51.39
2022-07-29T17:30:36.028Z,51.21
2022-07-29T17:35:56.201Z,50.72
2022-07-29T17:40:57.965Z,50.53
2022-07-29T17:45:59.701Z,52.48
2022-07-29T17:51:01.635Z,52.21
2022-07-29T17:56:04.514Z,52.45
2022-07-29T18:01:06.976Z,53.36
2022-07-29T18:06:10.431Z,54.03
2022-07-29T18:11:14.924Z,54.29
2022-07-29T18:16:16.993Z,53.48
2022-07-29T18:21:43.597Z,54.95
2022-07-29T18:26:39.966Z,54.69
2022-07-29T18:31:41.606Z,53.70
2022-07-29T18:36:43.345Z,53.59
2022-07-29T18:41:49.860Z,54.92
2022-07-29T18:46:52.563Z,55.57
2022-07-29T18:51:54.268Z,56.78
2022-07-29T18:56:55.986Z,55.83
2022-07-29T19:01:57.855Z,57.54
2022-07-29T19:07:02.701Z,57.63
2022-07-29T19:12:04.650Z,57.77
2022-07-29T19:17:06.243Z,58.80
2022-07-29T19:22:07.913Z,58.39
2022-07-29T19:27:09.394Z,58.52
2022-07-29T19:32:11.133Z,60.03
2022-07-29T19:37:12.664Z,59.16
2022-07-29T19:42:14.114Z,60.38
2022-07-29T19:47:17.462Z,61.08
2022-07-29T19:52:19.062Z,61.13
2022-07-29T19:57:20.611Z,61.75
2022-07-29T20:02:22.365Z,62.05
2022-07-29T20:07:23.934Z,61.08
2022-07-29T20:12:25.519Z,61.99
2022-07-29T20:17:28.353Z,62.71
2022-07-29T20:22:30.345Z,64.11
2022-07-29T20:27:31.846Z,65.89
2022-07-29T20:32:33.408Z,65.85
2022-07-29T20:37:34.986Z,65.09
2022-07-29T20:42:56.687Z,66.20
2022-07-29T20:47:58.371Z,65.87
2022-07-29T20:52:59.840Z,66.34
2022-07-29T20:58:01.773Z,65.28
2022-07-29T21:03:03.608Z,65.12
2022-07-29T21:08:06.391Z,64.98
2022-07-29T21:13:07.861Z,64.11
2022-07-29T21:18:26.635Z,63.41
2022-07-29T21:23:28.694Z,63.00
2022-07-29T21:28:35.656Z,63.04
2022-07-29T21:33:37.635Z,63.21
2022-07-29T21:38:39.263Z,63.30
2022-07-29T21:43:42.224Z,62.78
2022-07-29T21:48:44.701Z,62.89
2022-07-29T21:53:46.259Z,64.00
2022-07-29T21:58:47.730Z,64.81
2022-07-29T22:03:49.235Z,65.85
2022-07-29T22:08:51.677Z,66.59
2022-07-29T22:13:53.154Z,66.66
2022-07-29T22:18:54.606Z,68.01
2022-07-29T22:23:56.069Z,68.51
2022-07-29T22:28:57.670Z,69.36
2022-07-29T22:33:59.231Z,71.29
2022-07-29T22:39:00.676Z,73.91
2022-07-29T22:44:02.586Z,74.82
2022-07-29T22:49:05.247Z,75.94
2022-07-29T22:54:07.363Z,76.00
2022-07-29T22:59:08.823Z,75.96
2022-07-29T23:04:10.411Z,76.96
2022-07-29T23:09:16.272Z,76.91
2022-07-29T23:14:17.715Z,75.22
2022-07-29T23:19:19.181Z,75.58
2022-07-29T23:24:20.683Z,75.41
2022-07-29T23:29:22.227Z,73.73
2022-07-29T23:34:23.703Z,75.24
2022-07-29T23:39:25.143Z,74.65
2022-07-29T23:44:26.673Z,75.95
2022-07-29T23:49:28.234Z,76.60
2022-07-29T23:54:29.756Z,75.93
2022-07-29T23:59:31.194Z,75.34
